Airfield :
LOGIN :

Register | Disclaimer

   EN    FR    IT 

 










Legend :    VFR   Marginal VFR   IFR   Intensive IFR   Very Intensive IFR
Visi :
Ceiling :
>= 8 km
>= 3000ft
5 to 8 km
1000 to 3000 ft
1500m to 5 km
500 to 1000 ft
800 to 1500m
200 to 500 ft
< 800m
< 200 ft
Symbols :   Thunderstorms  Fog  Heavy snow  Heavy precipitations  Wind > 20 kt
SIGMETs :     Misc.  Thunderstorms  Icing  Turbulence  Mountain Waves  Volcanic Ashes






- Airport Elevation : 1768 ft


LEHC - Huesca Pirineos

CURRENT METAR :
  • 150430Z AUTO VRB01KT 9999 OVC013 09/07 Q1018

EXPIRED METARs :
  • 150400Z AUTO 00000KT 9999 BKN020 BKN025 OVC045 09/07 Q1019
  • 150330Z AUTO VRB02KT 9999 SCT018 OVC045 09/07 Q1018
  • 150300Z AUTO VRB02KT 9999 BKN017 BKN036 OVC042 09/07 Q1018
  • 150230Z AUTO 09005KT 9999 BKN017 OVC036 09/07 Q1018
  • 150200Z AUTO 08003KT 060V120 9999 BKN015 OVC041 09/07 Q1019

TAF TAF LEHC
Valid from the 15 at 03:00 until the 16 at 03:00 UTC


150200Z 1503/1603 10007KT 9999 BKN020 TX15/1514Z TN07/1506Z
PROB30
TEMPO 1503/1508 RA BKN012
BECMG 1509/1511 25010KT
BECMG 1520/1522 09010KT



MET'MAP, your aeronautical weather chart ! - Copyright ORBIFLY December 2007 - Disclaimer

ORBIFLY MET'MAP TEAM :

Programming & Development : Alexandra Zaïnal
Concept & original design : Baudouin d'Aumeries
Assistance for programming : Marc-Olivier Méhu
Technical & hardware support : Manuel Goepfert

Contact : metmap@orbifly.com




SOURCES & CREDITS :

   NOAA